Time;durP1;ratioP1;P1;durP2;ratioP2;P2;SDS_P1;SDS_P2;PMS_P1;PMS_P2;Temp;Humidity;BMP_temperature;BMP_pressure;BME280_temperature;BME280_humidity;BME280_pressure;Samples;Min_cycle;Max_cycle;Signal;HPM_P1;HPM_P2
2022/01/27 00:05:54;;;;;;;32.90;15.70;;;;;;;0.31;89.05;98998.60;106188;1277;24304;-72
2022/01/27 00:11:14;;;;;;;35.90;18.60;;;;;;;0.33;89.45;98998.16;106016;1276;137889;-72
2022/01/27 00:14:02;;;;;;;34.30;18.30;;;;;;;0.32;89.45;99000.77;106069;1276;22547;-72
2022/01/27 00:16:34;;;;;;;43.30;21.20;;;;;;;0.30;89.51;99013.30;106139;1276;137373;-72
2022/01/27 00:19:02;;;;;;;40.20;20.80;;;;;;;0.29;89.62;99023.40;106002;1278;22548;-72
2022/01/27 00:21:31;;;;;;;37.90;19.30;;;;;;;0.29;89.35;99032.95;105966;1279;138223;-73
2022/01/27 00:23:59;;;;;;;40.40;18.60;;;;;;;0.27;89.37;99036.86;106646;1277;23465;-72
2022/01/27 00:26:26;;;;;;;39.50;19.90;;;;;;;0.26;89.58;99036.73;106144;1277;25409;-72
2022/01/27 00:28:55;;;;;;;39.70;20.50;;;;;;;0.24;89.85;99037.23;106007;1277;137657;-74
2022/01/27 00:31:23;;;;;;;45.10;21.50;;;;;;;0.20;89.70;99032.23;106035;1276;22567;-72
2022/01/27 00:33:52;;;;;;;43.60;22.40;;;;;;;0.17;89.94;99030.42;105921;1279;138074;-72
2022/01/27 00:36:19;;;;;;;40.50;20.10;;;;;;;0.16;90.00;99028.73;106326;1278;25439;-72
2022/01/27 00:38:49;;;;;;;43.10;22.10;;;;;;;0.15;90.04;99021.77;106129;1277;25406;-72
2022/01/27 00:41:21;;;;;;;44.40;22.60;;;;;;;0.13;90.61;99024.48;106230;1276;137160;-72
2022/01/27 00:43:49;;;;;;;54.50;24.50;;;;;;;0.11;90.43;99030.17;106388;1277;22725;-74
2022/01/27 00:46:18;;;;;;;45.60;24.30;;;;;;;0.12;90.72;99026.90;106301;1277;138083;-72
2022/01/27 00:48:48;;;;;;;41.70;21.00;;;;;;;0.12;90.56;99022.34;106264;1277;23297;-72
2022/01/27 00:51:21;;;;;;;;;;;;;;;0.13;90.80;99020.43;106233;1277;138394;-72
2022/01/27 00:56:30;;;;;;;47.90;23.00;;;;;;;0.12;90.70;99026.13;106290;1277;24407;-72
2022/01/27 00:59:20;;;;;;;40.10;20.10;;;;;;;0.12;91.00;99029.29;105946;1277;138173;-72
2022/01/27 01:02:03;;;;;;;40.30;20.30;;;;;;;0.13;90.85;99030.38;106156;1277;22672;-72
2022/01/27 01:04:35;;;;;;;37.30;20.40;;;;;;;0.12;90.86;99025.95;105871;1277;137706;-73
2022/01/27 01:07:03;;;;;;;44.00;21.90;;;;;;;0.13;90.85;99022.84;106121;1277;22563;-73
2022/01/27 01:14:54;;;;;;;40.40;20.90;;;;;;;0.14;90.86;99010.52;106115;1277;25250;-72
2022/01/27 01:30:48;;;;;;;38.50;18.90;;;;;;;0.11;90.82;98993.38;106017;1277;23723;-72
2022/01/27 01:33:22;;;;;;;40.70;21.20;;;;;;;0.10;90.95;98995.66;106081;1277;137762;-72
2022/01/27 01:35:52;;;;;;;41.00;21.10;;;;;;;0.08;91.09;98991.99;106018;1277;23958;-72
2022/01/27 01:38:25;;;;;;;40.60;20.30;;;;;;;0.08;90.85;98991.44;106170;1277;22556;-72
2022/01/27 01:40:53;;;;;;;41.40;19.60;;;;;;;0.08;90.74;98995.89;106346;1277;138931;-72
2022/01/27 01:43:21;;;;;;;37.80;19.70;;;;;;;0.07;90.76;98992.02;106323;1277;22706;-72
2022/01/27 01:45:49;;;;;;;39.80;19.50;;;;;;;0.07;90.87;98986.99;106478;1277;140158;-72
2022/01/27 01:48:18;;;;;;;37.70;19.10;;;;;;;0.06;90.69;98983.20;106022;1280;25362;-72
2022/01/27 01:50:46;;;;;;;37.80;18.70;;;;;;;0.05;90.78;98980.08;106091;1277;24376;-72
2022/01/27 01:53:14;;;;;;;38.50;17.90;;;;;;;0.05;90.77;98975.83;106116;1276;138044;-72
2022/01/27 01:55:42;;;;;;;32.70;17.60;;;;;;;0.04;90.80;98974.77;105980;1279;25419;-72
2022/01/27 01:58:09;;;;;;;32.40;16.10;;;;;;;0.04;90.68;98974.18;105785;1276;137338;-72
2022/01/27 02:00:36;;;;;;;39.50;18.00;;;;;;;0.03;90.57;98973.44;106016;1279;24213;-72
2022/01/27 02:03:03;;;;;;;38.50;18.60;;;;;;;-0.00;90.72;98966.59;106028;1277;137856;-73
2022/01/27 02:05:38;;;;;;;29.90;17.30;;;;;;;-0.02;90.87;98962.80;106138;1277;23915;-73
2022/01/27 02:19:17;;;;;;;36.70;18.80;;;;;;;-0.05;90.80;98954.56;106244;1276;25408;-72
2022/01/27 02:21:59;;;;;;;29.70;16.50;;;;;;;-0.04;90.87;98950.58;105981;1276;138017;-72
2022/01/27 02:24:31;;;;;;;32.10;16.90;;;;;;;-0.08;90.79;98948.50;106174;1277;30361;-72
2022/01/27 02:27:00;;;;;;;30.30;15.80;;;;;;;-0.06;91.04;98956.67;106166;1277;22551;-72
2022/01/27 02:29:28;;;;;;;37.50;18.90;;;;;;;-0.07;90.85;98943.91;106167;1277;137689;-72
2022/01/27 02:31:58;;;;;;;33.10;16.80;;;;;;;-0.08;90.85;98947.42;106047;1277;22543;-72
2022/01/27 02:34:26;;;;;;;30.90;15.90;;;;;;;-0.08;91.01;98942.58;105721;1277;139390;-72
2022/01/27 02:36:54;;;;;;;32.80;17.90;;;;;;;-0.07;90.92;98939.61;105999;1276;23276;-72
2022/01/27 02:39:21;;;;;;;33.50;17.10;;;;;;;-0.06;91.00;98941.28;105792;1277;138531;-72
2022/01/27 02:41:48;;;;;;;34.60;18.70;;;;;;;-0.06;91.16;98942.73;105889;1279;23262;-72
2022/01/27 02:44:34;;;;;;;37.70;19.60;;;;;;;-0.06;91.13;98942.71;106083;1277;22567;-72
2022/01/27 02:47:02;;;;;;;30.40;17.10;;;;;;;-0.05;91.21;98943.67;105998;1277;138330;-72
2022/01/27 02:49:30;;;;;;;36.80;17.90;;;;;;;-0.04;91.14;98940.77;105935;1277;22707;-72
2022/01/27 02:51:57;;;;;;;31.10;17.50;;;;;;;-0.05;91.20;98936.20;106080;1280;137963;-72
2022/01/27 02:54:24;;;;;;;38.00;20.10;;;;;;;-0.07;91.36;98932.48;105930;1278;22802;-73
2022/01/27 02:56:51;;;;;;;32.00;19.50;;;;;;;-0.10;91.34;98933.73;105913;1276;22578;-73
2022/01/27 02:59:23;;;;;;;34.40;17.30;;;;;;;-0.11;91.18;98934.41;105830;1276;138215;-74
2022/01/27 03:01:51;;;;;;;33.70;17.00;;;;;;;-0.12;91.29;98936.75;105956;1276;22574;-74
2022/01/27 03:04:20;;;;;;;31.30;17.90;;;;;;;-0.11;91.32;98938.11;106207;1276;137665;-74
2022/01/27 03:06:47;;;;;;;34.10;17.60;;;;;;;-0.13;91.17;98938.25;106062;1277;25622;-74
2022/01/27 03:09:15;;;;;;;34.60;17.70;;;;;;;-0.13;91.19;98941.90;106051;1277;138211;-72
2022/01/27 03:12:03;;;;;;;30.40;16.50;;;;;;;-0.13;91.19;98939.55;106056;1277;24258;-72
2022/01/27 03:14:31;;;;;;;32.80;17.10;;;;;;;-0.11;91.09;98933.08;105976;1277;22828;-74
2022/01/27 03:17:00;;;;;;;36.10;20.10;;;;;;;-0.11;91.09;98926.48;105800;1277;137728;-71
2022/01/27 03:19:28;;;;;;;38.90;19.20;;;;;;;-0.12;90.85;98922.88;105916;1277;24287;-73
2022/01/27 03:21:56;;;;;;;43.50;22.40;;;;;;;-0.13;90.74;98924.24;105973;1277;138292;-72
2022/01/27 03:24:24;;;;;;;39.10;21.20;;;;;;;-0.13;90.78;98921.05;105949;1277;22703;-71
2022/01/27 03:26:54;;;;;;;45.20;21.50;;;;;;;-0.12;90.75;98915.88;106132;1277;24278;-73
2022/01/27 03:29:21;;;;;;;;;;;;;;;-0.12;90.78;98913.80;106202;1277;137745;-71
2022/01/27 03:31:49;;;;;;;51.10;21.10;;;;;;;-0.14;90.68;98907.93;106079;1277;22851;-72
2022/01/27 03:34:16;;;;;;;37.30;20.50;;;;;;;-0.16;90.91;98908.38;105863;1277;138404;-72
2022/01/27 03:36:44;;;;;;;41.90;21.90;;;;;;;-0.18;90.82;98905.52;106130;1277;25379;-72
2022/01/27 03:39:14;;;;;;;34.30;18.80;;;;;;;-0.17;90.75;98905.09;105922;1277;138725;-72
2022/01/27 03:41:49;;;;;;;33.00;18.90;;;;;;;-0.17;90.94;98902.18;106124;1277;24221;-72
2022/01/27 03:44:18;;;;;;;32.30;17.90;;;;;;;-0.18;90.94;98890.70;106222;1276;22570;-73
2022/01/27 03:46:46;;;;;;;;;;;;;;;-0.20;90.98;98893.50;105871;1279;137999;-73
2022/01/27 03:49:14;;;;;;;31.60;17.70;;;;;;;-0.21;90.90;98891.13;106144;1276;22603;-73
2022/01/27 03:51:42;;;;;;;31.40;16.50;;;;;;;-0.21;90.93;98894.67;106009;1276;138421;-73
2022/01/27 03:54:09;;;;;;;30.70;17.80;;;;;;;-0.20;91.02;98896.55;106250;1276;22719;-72
2022/01/27 03:56:36;;;;;;;28.60;15.40;;;;;;;-0.18;90.91;98901.23;106187;1277;25323;-71
2022/01/27 03:59:04;;;;;;;32.80;17.90;;;;;;;-0.18;90.89;98898.23;105947;1277;137870;-73
2022/01/27 04:01:31;;;;;;;31.40;15.70;;;;;;;-0.20;91.10;98903.02;105900;1278;23168;-73
2022/01/27 04:03:59;;;;;;;32.10;17.50;;;;;;;-0.21;90.98;98900.77;105777;1278;138225;-73
2022/01/27 04:06:37;;;;;;;28.80;15.10;;;;;;;-0.18;91.24;98904.45;105991;1278;22661;-72
2022/01/27 04:09:07;;;;;;;29.40;16.40;;;;;;;-0.19;91.09;98899.16;105984;1277;138041;-73
2022/01/27 04:11:36;;;;;;;31.50;16.40;;;;;;;-0.21;91.06;98905.39;105816;1280;22616;-74
2022/01/27 04:14:03;;;;;;;30.20;16.40;;;;;;;-0.22;91.09;98903.08;105889;1280;22624;-73
2022/01/27 04:16:31;;;;;;;27.80;15.10;;;;;;;-0.23;90.86;98899.25;105772;1277;138878;-74
2022/01/27 04:18:58;;;;;;;28.00;14.80;;;;;;;-0.23;90.99;98901.55;105909;1276;24413;-73
2022/01/27 04:21:25;;;;;;;25.90;14.60;;;;;;;-0.24;91.06;98903.44;105943;1276;138189;-74
2022/01/27 04:23:53;;;;;;;28.20;16.90;;;;;;;-0.25;91.31;98899.48;106252;1276;25378;-73
2022/01/27 04:26:27;;;;;;;31.50;17.00;;;;;;;-0.25;91.31;98895.14;105947;1277;22566;-74
2022/01/27 04:28:55;;;;;;;27.20;15.40;;;;;;;-0.23;91.31;98892.96;106208;1277;138429;-72
2022/01/27 04:31:25;;;;;;;24.80;14.80;;;;;;;-0.23;91.13;98892.39;106021;1277;22679;-72
2022/01/27 04:33:53;;;;;;;26.80;14.10;;;;;;;-0.22;91.51;98886.48;105810;1277;137695;-72
2022/01/27 04:36:29;;;;;;;28.60;15.70;;;;;;;-0.24;91.20;98888.98;105760;1276;22631;-72
2022/01/27 04:41:51;;;;;;;26.40;16.00;;;;;;;-0.24;91.26;98875.40;105961;1277;138567;-72
2022/01/27 04:44:43;;;;;;;28.90;14.90;;;;;;;-0.23;91.23;98870.11;106024;1276;25547;-72
2022/01/27 04:47:14;;;;;;;26.80;15.20;;;;;;;-0.24;91.18;98871.63;106016;1277;138668;-74
2022/01/27 04:49:43;;;;;;;30.30;17.40;;;;;;;-0.25;91.44;98866.60;106297;1277;25608;-72
2022/01/27 04:52:10;;;;;;;30.70;15.90;;;;;;;-0.26;91.17;98866.20;105966;1277;139099;-72
2022/01/27 04:54:54;;;;;;;25.10;13.50;;;;;;;-0.26;91.54;98868.17;105739;1280;22569;-73
2022/01/27 04:57:22;;;;;;;24.90;14.00;;;;;;;-0.27;91.43;98872.16;105851;1276;22551;-72
2022/01/27 04:59:50;;;;;;;23.50;13.80;;;;;;;-0.29;91.44;98867.37;105693;1276;138238;-73
2022/01/27 05:02:33;;;;;;;;;;;;;;;-0.30;91.32;98872.62;106126;1277;22619;-73
2022/01/27 05:05:01;;;;;;;24.90;15.00;;;;;;;-0.31;91.34;98868.17;106341;1277;124959;-73
2022/01/27 05:07:28;;;;;;;24.50;12.50;;;;;;;-0.31;91.47;98863.92;105863;1277;24317;-73
2022/01/27 05:10:00;;;;;;;31.90;14.90;;;;;;;-0.31;91.44;98861.09;105939;1277;138200;-73
2022/01/27 05:14:58;;;;;;;24.80;14.40;;;;;;;-0.30;91.95;98857.73;106094;1277;22726;-72
2022/01/27 05:17:26;;;;;;;25.00;15.40;;;;;;;-0.31;91.87;98858.95;105799;1276;138383;-73
2022/01/27 05:19:53;;;;;;;22.50;13.10;;;;;;;-0.31;91.73;98862.65;106250;1276;23920;-72
2022/01/27 05:22:20;;;;;;;26.50;14.40;;;;;;;-0.30;91.72;98856.48;105856;1279;138443;-72
2022/01/27 05:24:47;;;;;;;21.80;12.20;;;;;;;-0.30;91.89;98860.54;106107;1278;24504;-71
2022/01/27 05:27:14;;;;;;;22.60;14.30;;;;;;;-0.30;91.89;98864.69;105824;1277;25280;-71
2022/01/27 05:29:41;;;;;;;24.30;14.10;;;;;;;-0.33;91.90;98859.94;106032;1277;139166;-72
2022/01/27 05:32:08;;;;;;;26.70;13.00;;;;;;;-0.33;91.78;98865.69;105933;1280;24416;-73
2022/01/27 05:34:36;;;;;;;22.60;13.60;;;;;;;-0.33;91.93;98861.38;105780;1277;138482;-73
2022/01/27 05:37:03;;;;;;;25.90;13.40;;;;;;;-0.32;92.05;98860.11;105966;1276;22549;-73
2022/01/27 05:39:30;;;;;;;25.80;13.60;;;;;;;-0.32;91.88;98858.48;105886;1276;138210;-73
2022/01/27 05:41:57;;;;;;;27.70;13.40;;;;;;;-0.33;92.22;98856.98;106068;1278;25271;-73
2022/01/27 05:44:24;;;;;;;29.50;14.50;;;;;;;-0.34;92.11;98859.03;105905;1278;25533;-73
2022/01/27 05:46:52;;;;;;;29.60;16.20;;;;;;;-0.34;92.10;98852.41;105917;1277;138379;-73
2022/01/27 05:49:19;;;;;;;25.10;13.20;;;;;;;-0.32;92.32;98850.81;106002;1277;24419;-73
2022/01/27 05:51:46;;;;;;;26.00;14.30;;;;;;;-0.32;92.17;98846.50;105743;1277;137876;-72
2022/01/27 05:54:13;;;;;;;27.90;15.70;;;;;;;-0.31;92.17;98852.11;105749;1280;22703;-72
2022/01/27 05:56:40;;;;;;;27.90;15.10;;;;;;;-0.31;92.26;98849.23;105697;1277;23375;-72
2022/01/27 05:59:07;;;;;;;23.80;14.40;;;;;;;-0.30;91.97;98847.33;105824;1277;138542;-72
2022/01/27 06:01:34;;;;;;;27.10;14.00;;;;;;;-0.27;92.42;98841.92;105949;1277;22641;-72
2022/01/27 06:04:02;;;;;;;23.70;13.60;;;;;;;-0.25;92.22;98840.98;105835;1277;137947;-73
2022/01/27 06:06:30;;;;;;;27.10;15.50;;;;;;;-0.25;92.18;98835.40;105791;1277;22555;-73
2022/01/27 06:08:57;;;;;;;26.70;13.90;;;;;;;-0.25;92.01;98832.48;105967;1276;24436;-72
2022/01/27 06:11:24;;;;;;;26.90;14.10;;;;;;;-0.25;91.86;98830.15;105990;1277;139259;-72
2022/01/27 06:13:52;;;;;;;22.40;14.00;;;;;;;-0.23;92.08;98825.56;106091;1276;22560;-72
2022/01/27 06:16:20;;;;;;;26.10;14.00;;;;;;;-0.22;91.56;98830.60;105898;1276;137752;-72
2022/01/27 06:18:48;;;;;;;25.50;15.00;;;;;;;-0.23;91.79;98827.96;106114;1277;22709;-73
2022/01/27 06:21:17;;;;;;;33.00;16.00;;;;;;;-0.22;91.54;98826.88;105836;1277;25435;-74
2022/01/27 06:23:44;;;;;;;26.80;15.70;;;;;;;-0.21;91.71;98817.96;105806;1278;138586;-72
2022/01/27 06:26:12;;;;;;;27.40;15.70;;;;;;;-0.17;91.66;98807.22;106004;1277;23916;-72
2022/01/27 06:28:42;;;;;;;33.90;15.40;;;;;;;-0.15;91.41;98805.41;105991;1278;137878;-73
2022/01/27 06:31:10;;;;;;;34.80;18.40;;;;;;;-0.15;91.44;98802.55;106070;1277;25494;-73
2022/01/27 06:33:37;;;;;;;36.50;19.50;;;;;;;-0.16;91.09;98811.08;106058;1276;138363;-72
2022/01/27 06:36:05;;;;;;;37.80;17.70;;;;;;;-0.15;91.16;98810.44;105705;1279;22633;-72
2022/01/27 06:38:32;;;;;;;34.10;17.50;;;;;;;-0.13;91.28;98817.73;105898;1277;24363;-72
2022/01/27 06:40:59;;;;;;;39.70;18.40;;;;;;;-0.12;91.04;98816.37;106133;1277;138470;-72
2022/01/27 06:43:26;;;;;;;41.50;19.60;;;;;;;-0.12;91.10;98818.11;106122;1277;22688;-72
2022/01/27 06:45:53;;;;;;;38.50;18.90;;;;;;;-0.11;91.01;98802.38;106174;1276;138712;-72
2022/01/27 06:48:21;;;;;;;38.80;18.50;;;;;;;-0.10;91.26;98796.52;106305;1277;22674;-72
2022/01/27 06:50:53;;;;;;;38.40;18.70;;;;;;;-0.06;90.95;98786.58;105843;1277;22726;-72
2022/01/27 06:53:22;;;;;;;34.50;17.90;;;;;;;-0.04;90.82;98780.42;106526;1277;138202;-73
2022/01/27 06:55:50;;;;;;;32.40;17.50;;;;;;;-0.02;90.66;98774.52;106136;1277;24227;-72
2022/01/27 06:58:18;;;;;;;38.30;20.30;;;;;;;-0.00;90.87;98775.05;106082;1277;138195;-72
2022/01/27 07:00:46;;;;;;;39.40;19.20;;;;;;;0.03;90.93;98777.60;106126;1277;22551;-72
2022/01/27 07:03:13;;;;;;;31.70;17.60;;;;;;;0.07;90.63;98779.48;106079;1277;22723;-72
2022/01/27 07:05:41;;;;;;;34.20;17.30;;;;;;;0.11;90.50;98777.41;106464;1278;137993;-73
2022/01/27 07:08:09;;;;;;;31.70;17.30;;;;;;;0.14;90.37;98774.33;106268;1277;25248;-73
2022/01/27 07:10:36;;;;;;;36.30;19.10;;;;;;;0.17;90.22;98769.73;106132;1277;137832;-72
2022/01/27 07:13:04;;;;;;;34.30;16.40;;;;;;;0.19;89.86;98761.70;106089;1277;25306;-73
2022/01/27 07:15:32;;;;;;;38.00;18.00;;;;;;;0.22;89.82;98762.27;106546;1277;137886;-75
2022/01/27 07:18:03;;;;;;;31.10;15.00;;;;;;;0.27;89.75;98762.79;106534;1277;22595;-72
2022/01/27 07:20:30;;;;;;;31.70;15.30;;;;;;;0.30;89.32;98759.05;106243;1277;22554;-72
2022/01/27 07:22:58;;;;;;;38.10;17.20;;;;;;;0.31;89.14;98759.67;106265;1277;137867;-72
2022/01/27 07:25:25;;;;;;;33.10;16.80;;;;;;;0.33;89.16;98763.67;106574;1277;22700;-71
2022/01/27 07:27:52;;;;;;;31.90;16.20;;;;;;;0.35;88.99;98764.58;106220;1277;139094;-74
2022/01/27 07:30:20;;;;;;;31.20;15.20;;;;;;;0.37;88.89;98762.36;106168;1277;25382;-72
2022/01/27 07:32:47;;;;;;;32.00;17.20;;;;;;;0.38;88.72;98767.38;106405;1277;25263;-72
2022/01/27 07:35:16;;;;;;;30.40;15.20;;;;;;;0.40;88.77;98765.05;106297;1277;137950;-73
2022/01/27 07:37:46;;;;;;;32.10;16.60;;;;;;;0.41;88.51;98758.36;106174;1278;22602;-73
2022/01/27 07:40:14;;;;;;;32.40;18.00;;;;;;;0.41;88.62;98757.09;105876;1277;137827;-72
2022/01/27 07:42:44;;;;;;;34.00;17.30;;;;;;;0.42;88.48;98754.67;106118;1277;24214;-72
2022/01/27 07:45:13;;;;;;;33.60;17.00;;;;;;;0.44;88.30;98748.50;106335;1277;22546;-71
2022/01/27 07:47:42;;;;;;;30.60;15.50;;;;;;;0.46;88.32;98742.03;106603;1277;137530;-75
2022/01/27 07:50:09;;;;;;;30.30;15.00;;;;;;;0.48;88.16;98738.14;106762;1277;22561;-73
2022/01/27 07:52:37;;;;;;;31.70;16.20;;;;;;;0.46;87.93;98735.61;106242;1277;137591;-73
2022/01/27 07:55:06;;;;;;;31.50;15.70;;;;;;;0.47;87.89;98734.27;106251;1278;24263;-73
2022/01/27 07:57:34;;;;;;;;;;;;;;;0.48;87.69;98736.54;106524;1277;140960;-73
2022/01/27 08:00:01;;;;;;;28.20;15.20;;;;;;;0.51;87.47;98731.38;106383;1278;22604;-73
2022/01/27 08:02:29;;;;;;;32.50;14.90;;;;;;;0.55;87.33;98728.30;106240;1277;25454;-73
2022/01/27 08:04:59;;;;;;;24.90;12.40;;;;;;;0.62;87.47;98730.79;106305;1277;137668;-73
2022/01/27 08:07:27;;;;;;;26.50;13.90;;;;;;;0.66;87.05;98724.63;106320;1278;22560;-71
2022/01/27 08:09:54;;;;;;;26.10;13.30;;;;;;;0.74;87.10;98720.16;106251;1277;137832;-72
2022/01/27 08:12:21;;;;;;;30.50;16.10;;;;;;;0.82;86.79;98716.21;106087;1277;22825;-72
2022/01/27 08:15:09;;;;;;;31.90;15.20;;;;;;;0.92;86.13;98707.13;106377;1277;22559;-72
2022/01/27 08:17:39;;;;;;;27.50;13.10;;;;;;;1.11;86.25;98692.50;106703;1277;137994;-74
2022/01/27 08:20:07;;;;;;;29.70;14.80;;;;;;;1.30;85.89;98685.50;106368;1278;22542;-72
2022/01/27 08:22:43;;;;;;;21.80;11.70;;;;;;;1.46;85.47;98685.52;106015;1278;138428;-72
2022/01/27 08:25:13;;;;;;;24.10;13.40;;;;;;;1.55;84.71;98685.27;106177;1278;22579;-72
2022/01/27 08:27:44;;;;;;;28.20;13.70;;;;;;;1.57;84.30;98685.34;105958;1277;139026;-72
2022/01/27 08:30:15;;;;;;;24.90;13.20;;;;;;;1.57;83.87;98690.03;106000;1277;23254;-74
2022/01/27 08:32:49;;;;;;;26.70;12.80;;;;;;;1.57;84.10;98683.39;105749;1277;22553;-72
2022/01/27 08:35:20;;;;;;;26.10;14.30;;;;;;;1.60;84.11;98679.36;105763;1281;137968;-72
2022/01/27 08:37:48;;;;;;;23.90;12.90;;;;;;;1.61;83.78;98674.79;106026;1278;22553;-72
2022/01/27 08:40:17;;;;;;;24.90;12.40;;;;;;;1.58;83.62;98664.86;106120;1277;137758;-72
2022/01/27 08:42:45;;;;;;;25.50;13.10;;;;;;;1.53;83.21;98666.48;106003;1277;24485;-73
2022/01/27 08:45:16;;;;;;;27.70;13.90;;;;;;;1.53;83.40;98662.35;105957;1277;22565;-72
2022/01/27 08:47:45;;;;;;;24.50;13.00;;;;;;;1.58;83.29;98672.48;105930;1278;139456;-72
2022/01/27 08:50:14;;;;;;;25.60;12.70;;;;;;;1.67;83.22;98681.25;106123;1277;25317;-73
2022/01/27 08:52:43;;;;;;;23.30;13.00;;;;;;;1.79;83.04;98678.45;105983;1277;138043;-71
2022/01/27 08:55:11;;;;;;;20.40;11.40;;;;;;;1.88;82.79;98678.71;106148;1277;25375;-72
2022/01/27 08:57:38;;;;;;;21.80;12.00;;;;;;;1.97;82.28;98686.07;107096;1277;139323;-72
2022/01/27 09:00:08;;;;;;;21.40;10.70;;;;;;;2.00;81.75;98691.16;106712;1277;22867;-72
2022/01/27 09:02:36;;;;;;;22.50;11.90;;;;;;;1.99;81.25;98688.79;106737;1277;23310;-72
2022/01/27 09:05:04;;;;;;;21.10;11.50;;;;;;;2.04;81.74;98683.65;106490;1277;137796;-73
2022/01/27 09:07:34;;;;;;;20.90;11.70;;;;;;;2.12;81.35;98680.52;106687;1277;24298;-72
2022/01/27 09:10:01;;;;;;;22.90;11.30;;;;;;;2.23;81.25;98678.34;107719;1277;138360;-73
2022/01/27 09:12:28;;;;;;;20.80;12.20;;;;;;;2.36;80.90;98675.98;108449;1277;31729;-72
2022/01/27 09:14:56;;;;;;;22.30;12.20;;;;;;;2.48;80.74;98677.75;107279;1277;22551;-72
2022/01/27 09:17:26;;;;;;;21.80;13.50;;;;;;;2.55;80.50;98679.29;106753;1277;137715;-72
2022/01/27 09:19:53;;;;;;;25.50;12.90;;;;;;;2.58;80.11;98682.72;106393;1277;25305;-72
2022/01/27 09:22:22;;;;;;;22.80;12.30;;;;;;;2.60;80.24;98674.55;106153;1277;137868;-72
2022/01/27 09:24:58;;;;;;;29.10;14.80;;;;;;;2.62;80.08;98666.73;106228;1277;22661;-72
2022/01/27 09:27:26;;;;;;;22.20;12.60;;;;;;;2.63;79.67;98661.98;106832;1277;23547;-72
2022/01/27 09:29:53;;;;;;;25.80;13.60;;;;;;;2.60;79.18;98650.52;106321;1276;138188;-72
2022/01/27 09:32:21;;;;;;;23.90;12.10;;;;;;;2.56;79.07;98649.44;106951;1277;24394;-72
2022/01/27 09:34:49;;;;;;;23.20;12.30;;;;;;;2.51;78.78;98642.23;106237;1277;137584;-72
2022/01/27 09:37:16;;;;;;;25.30;14.60;;;;;;;2.46;78.94;98637.38;106194;1277;23874;-72
2022/01/27 09:39:44;;;;;;;24.00;11.90;;;;;;;2.43;78.66;98637.91;106261;1277;138439;-72
2022/01/27 09:42:13;;;;;;;18.70;10.20;;;;;;;2.40;78.64;98636.31;106545;1277;23443;-72
2022/01/27 09:44:43;;;;;;;18.30;9.40;;;;;;;2.35;78.08;98633.89;106497;1277;24466;-72
2022/01/27 09:47:15;;;;;;;21.90;11.10;;;;;;;2.27;77.55;98628.58;106401;1277;137431;-72
2022/01/27 09:49:50;;;;;;;22.50;11.60;;;;;;;2.21;78.08;98628.79;106549;1277;23026;-71
2022/01/27 09:52:19;;;;;;;22.80;11.30;;;;;;;2.16;77.94;98634.13;106744;1277;138069;-72
2022/01/27 09:54:46;;;;;;;18.70;10.90;;;;;;;2.14;78.41;98629.31;106050;1279;24234;-72
2022/01/27 09:57:17;;;;;;;21.70;11.50;;;;;;;2.14;78.14;98619.64;106772;1277;276295;-72
2022/01/27 09:59:46;;;;;;;21.00;11.10;;;;;;;2.15;78.65;98621.40;106521;1276;137763;-72
2022/01/27 10:02:22;;;;;;;24.70;11.40;;;;;;;2.15;78.47;98611.44;106498;1277;25597;-71
2022/01/27 10:04:52;;;;;;;22.90;12.00;;;;;;;2.15;78.63;98603.20;106196;1277;137822;-71
2022/01/27 10:07:22;;;;;;;22.00;12.10;;;;;;;2.13;78.45;98598.52;106753;1277;22551;-72
2022/01/27 10:10:13;;;;;;;20.20;11.40;;;;;;;2.12;78.40;98597.73;106809;1276;138553;-72
2022/01/27 10:12:47;;;;;;;17.40;9.70;;;;;;;2.08;77.90;98589.71;106935;1276;25405;-73
2022/01/27 10:15:18;;;;;;;18.50;10.70;;;;;;;2.05;78.01;98586.15;106524;1277;24222;-72
2022/01/27 10:18:09;;;;;;;18.90;9.50;;;;;;;2.04;78.15;98583.17;107066;1277;138032;-72
2022/01/27 10:20:43;;;;;;;21.90;11.50;;;;;;;2.04;78.01;98577.12;106256;1277;22624;-73
2022/01/27 10:23:19;;;;;;;20.20;10.90;;;;;;;2.03;78.35;98575.79;106155;1277;138309;-73
2022/01/27 10:25:55;;;;;;;19.00;10.90;;;;;;;2.06;77.98;98560.45;106097;1278;23305;-72
2022/01/27 10:29:00;;;;;;;21.10;10.80;;;;;;;2.10;78.08;98545.21;106377;1277;137669;-73
2022/01/27 10:31:28;;;;;;;18.60;10.40;;;;;;;2.16;77.84;98538.95;106591;1277;22548;-72
2022/01/27 10:34:10;;;;;;;20.60;11.10;;;;;;;2.19;77.73;98539.31;105992;1278;138115;-72
2022/01/27 10:36:45;;;;;;;21.60;11.10;;;;;;;2.23;77.61;98524.16;106025;1276;25278;-72
2022/01/27 10:39:24;;;;;;;21.20;10.60;;;;;;;2.22;76.82;98524.19;106358;1276;24460;-72
2022/01/27 10:42:00;;;;;;;21.10;10.90;;;;;;;2.22;76.99;98507.62;105992;1277;137798;-71
2022/01/27 10:44:44;;;;;;;21.70;10.60;;;;;;;2.22;77.40;98497.20;106028;1278;30631;-71
2022/01/27 10:47:23;;;;;;;18.50;11.00;;;;;;;2.20;77.17;98498.70;106121;1277;137770;-72
2022/01/27 10:50:00;;;;;;;17.70;9.80;;;;;;;2.20;76.96;98495.64;105946;1278;25432;-71
2022/01/27 10:52:48;;;;;;;18.50;9.60;;;;;;;2.20;76.71;98504.95;106257;1278;137588;-72
2022/01/27 10:55:22;;;;;;;18.10;10.40;;;;;;;2.16;76.43;98500.60;106584;1277;22607;-72
2022/01/27 10:57:52;;;;;;;17.10;10.00;;;;;;;2.16;76.48;98493.33;106208;1277;138087;-72
2022/01/27 11:00:22;;;;;;;17.40;9.20;;;;;;;2.18;76.21;98483.05;106054;1277;22711;-72
2022/01/27 11:03:03;;;;;;;19.10;9.90;;;;;;;2.19;76.05;98478.19;106273;1278;23018;-72
2022/01/27 11:05:34;;;;;;;20.50;9.60;;;;;;;2.22;76.41;98488.93;106416;1277;137884;-72
2022/01/27 11:08:03;;;;;;;16.70;9.40;;;;;;;2.20;75.82;98498.41;106335;1277;25261;-72
2022/01/27 11:10:30;;;;;;;17.90;9.90;;;;;;;2.12;75.84;98481.45;106059;1277;137884;-72
2022/01/27 11:13:00;;;;;;;14.50;8.00;;;;;;;2.04;75.90;98471.49;105948;1279;22551;-72
2022/01/27 11:15:29;;;;;;;15.40;8.70;;;;;;;1.96;75.82;98473.43;106352;1277;22565;-72
2022/01/27 11:18:01;;;;;;;16.50;8.90;;;;;;;1.89;76.23;98483.56;106249;1277;137787;-72
2022/01/27 11:20:48;;;;;;;13.80;7.90;;;;;;;1.85;76.62;98476.52;106387;1277;23168;-72
2022/01/27 11:26:14;;;;;;;15.80;8.00;;;;;;;1.74;76.05;98472.52;106706;1277;24298;-72
2022/01/27 11:28:44;;;;;;;15.90;7.90;;;;;;;1.68;76.30;98465.68;106347;1276;138073;-73
2022/01/27 11:31:26;;;;;;;16.30;7.90;;;;;;;1.67;76.41;98461.20;106279;1277;23475;-73
2022/01/27 11:34:00;;;;;;;13.90;7.80;;;;;;;1.66;76.33;98468.38;106557;1278;137568;-73
2022/01/27 11:36:31;;;;;;;16.70;9.20;;;;;;;1.66;76.25;98461.64;107020;1277;25231;-72
2022/01/27 11:39:07;;;;;;;18.70;8.60;;;;;;;1.66;76.40;98449.95;106372;1277;22574;-71
2022/01/27 11:41:39;;;;;;;14.00;7.30;;;;;;;1.67;76.18;98447.83;106129;1279;138201;-74
2022/01/27 11:44:36;;;;;;;12.50;6.80;;;;;;;1.67;76.10;98435.92;106414;1277;24265;-73
2022/01/27 11:47:12;;;;;;;16.10;7.60;;;;;;;1.68;76.37;98441.64;106633;1277;139647;-74
2022/01/27 11:49:57;;;;;;;16.50;7.50;;;;;;;1.74;76.27;98438.48;106243;1277;22573;-73
2022/01/27 11:52:28;;;;;;;12.60;7.20;;;;;;;1.79;75.93;98438.99;106113;1277;138371;-72
2022/01/27 11:55:37;;;;;;;13.70;6.90;;;;;;;1.81;75.77;98438.23;106444;1278;22572;-72
2022/01/27 11:58:19;;;;;;;13.80;7.10;;;;;;;1.78;75.29;98449.52;106404;1277;137573;-72
2022/01/27 12:01:10;;;;;;;12.50;6.60;;;;;;;1.71;75.14;98444.02;106143;1277;25376;-74
2022/01/27 12:03:39;;;;;;;14.10;6.80;;;;;;;1.63;75.57;98424.56;106336;1277;138239;-71
2022/01/27 12:06:25;;;;;;;16.50;7.90;;;;;;;1.58;75.63;98419.80;106163;1277;30826;-74
2022/01/27 12:09:22;;;;;;;14.90;8.30;;;;;;;1.56;75.80;98401.19;105805;1277;23227;-72
2022/01/27 12:12:11;;;;;;;15.50;7.90;;;;;;;1.57;75.86;98392.05;106145;1277;137532;-72
2022/01/27 12:14:41;;;;;;;16.80;6.20;;;;;;;1.56;75.63;98385.58;106039;1278;22639;-72
2022/01/27 12:17:08;;;;;;;;;;;;;;;1.55;75.70;98389.41;106106;1277;137362;-72
2022/01/27 12:19:56;;;;;;;15.60;6.30;;;;;;;1.55;75.70;98376.98;106329;1278;22717;-72